createdAt,value
2023-03-11T00:01:57.418Z,66.80
2023-03-11T00:07:02.232Z,66.90
2023-03-11T00:12:06.973Z,66.80
2023-03-11T00:17:10.355Z,66.50
2023-03-11T00:22:15.117Z,65.60
2023-03-11T00:27:18.798Z,65.50
2023-03-11T00:32:22.367Z,65.50
2023-03-11T00:37:27.494Z,65.20
2023-03-11T00:42:30.854Z,65.00
2023-03-11T00:47:34.330Z,64.90
2023-03-11T00:52:39.227Z,65.10
2023-03-11T00:57:43.512Z,64.30
2023-03-11T01:02:47.234Z,64.50
2023-03-11T01:07:52.052Z,64.40
2023-03-11T01:12:56.029Z,64.60
2023-03-11T01:17:59.465Z,64.70
2023-03-11T01:23:05.170Z,65.10
2023-03-11T01:28:09.288Z,65.40
2023-03-11T01:33:17.440Z,65.60
2023-03-11T01:38:22.226Z,65.80
2023-03-11T01:43:49.960Z,66.80
2023-03-11T01:48:54.887Z,67.50
2023-03-11T01:54:04.698Z,67.70
2023-03-11T01:59:09.031Z,67.70
2023-03-11T02:04:12.946Z,67.80
2023-03-11T02:09:17.692Z,68.70
2023-03-11T02:14:21.517Z,67.80
2023-03-11T02:19:31.933Z,67.80
2023-03-11T02:24:44.696Z,67.90
2023-03-11T02:29:51.665Z,68.30
2023-03-11T02:34:55.367Z,68.40
2023-03-11T02:40:39.440Z,68.70
2023-03-11T02:45:46.550Z,68.90
2023-03-11T02:50:49.986Z,68.90
2023-03-11T02:55:53.350Z,68.90
2023-03-11T03:00:58.541Z,68.80
2023-03-11T03:06:01.961Z,68.80
2023-03-11T03:11:05.741Z,68.90
2023-03-11T03:16:10.791Z,68.90
2023-03-11T03:21:14.313Z,65.40
2023-03-11T03:26:17.920Z,63.40
2023-03-11T03:31:22.805Z,62.40
2023-03-11T03:36:26.209Z,63.50
2023-03-11T03:41:29.695Z,64.20
2023-03-11T03:46:34.402Z,64.20
2023-03-11T03:51:38.029Z,64.50
2023-03-11T03:56:41.486Z,65.00
2023-03-11T04:01:46.737Z,65.60
2023-03-11T04:06:50.281Z,65.50
2023-03-11T04:11:53.679Z,65.30
2023-03-11T04:16:58.680Z,65.30
2023-03-11T04:22:02.177Z,65.50
2023-03-11T04:27:05.607Z,65.20
2023-03-11T04:32:10.582Z,66.00
2023-03-11T04:37:13.971Z,66.70
2023-03-11T04:42:19.150Z,66.40
2023-03-11T04:47:24.178Z,66.20
2023-03-11T04:52:27.580Z,66.80
2023-03-11T04:57:31.027Z,67.40
2023-03-11T05:02:35.737Z,68.10
2023-03-11T05:07:39.222Z,68.30
2023-03-11T05:12:42.815Z,69.00
2023-03-11T05:17:47.584Z,69.50
2023-03-11T05:22:51.082Z,70.50
2023-03-11T05:27:54.484Z,71.20
2023-03-11T05:32:59.397Z,72.00
2023-03-11T05:38:02.753Z,73.00
2023-03-11T05:43:06.200Z,74.50
2023-03-11T05:48:11.224Z,74.60
2023-03-11T05:53:14.829Z,75.00
2023-03-11T05:58:18.462Z,75.30
2023-03-11T06:03:23.723Z,76.30
2023-03-11T06:08:27.217Z,77.70
2023-03-11T06:13:30.879Z,78.50
2023-03-11T06:18:35.936Z,79.00
2023-03-11T06:23:39.266Z,79.20
2023-03-11T06:28:43.675Z,79.30
2023-03-11T06:33:48.736Z,79.50
2023-03-11T06:38:52.921Z,79.80
2023-03-11T06:43:56.337Z,80.40
2023-03-11T06:49:01.110Z,81.00
2023-03-11T06:54:04.582Z,81.60
2023-03-11T06:59:07.979Z,82.00
2023-03-11T07:04:13.021Z,83.60
2023-03-11T07:09:16.390Z,84.10
2023-03-11T07:14:20.511Z,85.00
2023-03-11T07:19:25.293Z,85.20
2023-03-11T07:24:28.724Z,85.60
2023-03-11T07:29:32.084Z,85.90
2023-03-11T07:34:37.173Z,86.80
2023-03-11T07:39:40.938Z,87.50
2023-03-11T07:44:44.538Z,87.70
2023-03-11T07:49:49.523Z,88.40
2023-03-11T07:54:52.893Z,89.40
2023-03-11T07:59:56.277Z,89.80
2023-03-11T08:05:01.108Z,89.90
2023-03-11T08:10:05.336Z,89.60
2023-03-11T08:15:10.305Z,89.00
2023-03-11T08:20:15.447Z,89.60
2023-03-11T08:25:19.117Z,89.60
2023-03-11T08:30:23.052Z,89.00
2023-03-11T08:35:28.107Z,88.80
2023-03-11T08:40:31.660Z,89.00
2023-03-11T08:45:35.468Z,88.60
2023-03-11T08:50:53.260Z,88.50
2023-03-11T08:55:58.026Z,88.70
2023-03-11T09:01:01.519Z,88.20
2023-03-11T09:06:09.328Z,87.70
2023-03-11T09:11:13.800Z,87.60
2023-03-11T09:16:18.937Z,87.30
2023-03-11T09:21:23.951Z,87.40
2023-03-11T09:26:27.377Z,87.50
2023-03-11T09:31:31.056Z,87.50
2023-03-11T09:36:35.783Z,87.00
2023-03-11T09:41:57.405Z,86.90
2023-03-11T09:47:25.231Z,85.60
2023-03-11T09:52:33.938Z,85.40
2023-03-11T09:57:39.579Z,85.30
2023-03-11T10:02:43.522Z,85.60
2023-03-11T10:07:56.453Z,87.40
2023-03-11T10:13:07.785Z,89.10
2023-03-11T10:18:38.706Z,89.30
2023-03-11T10:23:59.789Z,88.50
2023-03-11T10:29:11.313Z,87.60
2023-03-11T10:34:21.890Z,86.60
2023-03-11T10:39:27.849Z,86.30
2023-03-11T10:44:35.954Z,83.60
2023-03-11T10:49:39.650Z,83.00
2023-03-11T10:54:47.867Z,83.60
2023-03-11T10:59:53.351Z,82.30
2023-03-11T11:05:24.549Z,83.20
2023-03-11T11:10:30.892Z,84.20
2023-03-11T11:15:37.140Z,83.10
2023-03-11T11:20:40.842Z,81.20
2023-03-11T11:25:58.992Z,81.00
2023-03-11T11:31:04.749Z,79.70
2023-03-11T11:36:15.932Z,78.90
2023-03-11T11:41:23.598Z,78.60
2023-03-11T11:46:32.262Z,78.90
2023-03-11T11:51:41.315Z,77.90
2023-03-11T11:56:46.310Z,80.20
2023-03-11T12:02:01.318Z,80.30
2023-03-11T12:07:16.090Z,78.30
2023-03-11T12:12:28.906Z,78.60
2023-03-11T12:17:33.583Z,76.50
2023-03-11T12:23:07.590Z,75.80
2023-03-11T12:28:23.290Z,73.70
2023-03-11T12:33:33.014Z,73.50
2023-03-11T12:38:40.088Z,72.00
2023-03-11T12:44:02.589Z,71.30
2023-03-11T12:49:17.082Z,72.90
2023-03-11T12:54:30.665Z,73.30
2023-03-11T12:59:57.901Z,71.60
2023-03-11T13:05:12.517Z,70.20
2023-03-11T13:10:36.539Z,74.10
2023-03-11T13:15:43.100Z,74.50
2023-03-11T13:20:51.053Z,76.70
2023-03-11T13:26:27.003Z,73.40
2023-03-11T13:31:43.826Z,72.00
2023-03-11T13:37:04.741Z,70.70
2023-03-11T13:42:18.969Z,69.60
2023-03-11T13:47:25.619Z,71.00
2023-03-11T13:52:32.867Z,73.30
2023-03-11T13:57:38.458Z,73.20
2023-03-11T14:02:47.317Z,72.20
2023-03-11T14:07:50.792Z,70.50
2023-03-11T14:13:07.085Z,69.70
2023-03-11T14:18:30.957Z,67.20
2023-03-11T14:23:36.914Z,64.30
2023-03-11T14:28:44.961Z,64.00
2023-03-11T14:33:58.578Z,63.80
2023-03-11T14:39:01.838Z,63.40
2023-03-11T14:44:06.024Z,63.10
2023-03-11T14:49:17.089Z,63.80
2023-03-11T14:54:25.132Z,63.70
2023-03-11T14:59:32.263Z,64.70
2023-03-11T15:04:44.203Z,64.20
2023-03-11T15:09:48.179Z,64.50
2023-03-11T15:14:52.705Z,65.10
2023-03-11T15:19:58.116Z,65.30
2023-03-11T15:25:04.151Z,64.90
2023-03-11T15:30:21.014Z,63.10
2023-03-11T15:35:27.172Z,62.10
2023-03-11T15:40:44.312Z,62.50
2023-03-11T15:45:49.195Z,62.50
2023-03-11T15:50:55.960Z,62.20
2023-03-11T15:56:07.964Z,61.00
2023-03-11T16:01:11.615Z,60.80
2023-03-11T16:06:16.438Z,60.30
2023-03-11T16:11:20.076Z,60.60
2023-03-11T16:16:23.766Z,60.80
2023-03-11T16:21:35.956Z,59.70
2023-03-11T16:26:39.472Z,59.80
2023-03-11T16:31:43.204Z,60.20
2023-03-11T16:36:48.006Z,60.20
2023-03-11T16:41:51.354Z,59.60
2023-03-11T16:46:54.863Z,59.10
2023-03-11T16:52:00.085Z,59.40
2023-03-11T16:57:03.903Z,60.40
2023-03-11T17:02:08.051Z,59.20
2023-03-11T17:07:12.895Z,58.70
2023-03-11T17:12:18.390Z,58.00
2023-03-11T17:17:22.664Z,58.30
2023-03-11T17:22:27.469Z,58.60
2023-03-11T17:27:32.571Z,58.70
2023-03-11T17:32:36.477Z,58.90
2023-03-11T17:37:41.291Z,58.70
2023-03-11T17:42:44.722Z,59.00
2023-03-11T17:47:48.211Z,59.00
2023-03-11T17:52:53.582Z,59.70
2023-03-11T17:57:56.969Z,61.90
2023-03-11T18:03:03.045Z,63.10
2023-03-11T18:08:07.931Z,64.80
2023-03-11T18:13:12.815Z,65.40
2023-03-11T18:18:16.213Z,66.50
2023-03-11T18:23:21.157Z,67.50
2023-03-11T18:28:24.655Z,68.80
2023-03-11T18:33:28.183Z,68.90
2023-03-11T18:38:32.958Z,69.20
2023-03-11T18:43:36.944Z,69.30
2023-03-11T18:48:40.596Z,69.50
2023-03-11T18:53:45.437Z,69.80
2023-03-11T18:58:48.932Z,70.00
2023-03-11T19:03:54.730Z,70.30
2023-03-11T19:09:00.847Z,70.30
2023-03-11T19:14:04.647Z,71.00
2023-03-11T19:19:10.806Z,71.00
2023-03-11T19:24:17.761Z,71.30
2023-03-11T19:29:23.751Z,71.50
2023-03-11T19:34:28.935Z,71.70
2023-03-11T19:39:33.996Z,72.00
2023-03-11T19:44:37.489Z,72.40
2023-03-11T19:49:40.971Z,72.50
2023-03-11T19:54:45.734Z,72.60
2023-03-11T19:59:49.084Z,72.60
2023-03-11T20:04:52.662Z,72.30
2023-03-11T20:09:57.841Z,72.00
2023-03-11T20:15:01.358Z,71.70
2023-03-11T20:20:05.462Z,71.80
2023-03-11T20:25:11.265Z,72.00
2023-03-11T20:30:15.538Z,71.80
2023-03-11T20:35:19.183Z,71.80
2023-03-11T20:40:23.973Z,71.50
2023-03-11T20:45:27.795Z,71.40
2023-03-11T20:50:31.248Z,71.80
2023-03-11T20:55:36.078Z,72.30
2023-03-11T21:00:39.550Z,72.40
2023-03-11T21:05:45.569Z,72.70
2023-03-11T21:10:50.346Z,72.70
2023-03-11T21:15:55.204Z,73.20
2023-03-11T21:20:58.965Z,73.20
2023-03-11T21:26:05.941Z,73.20
2023-03-11T21:31:11.603Z,73.20
2023-03-11T21:36:16.743Z,73.30
2023-03-11T21:41:25.107Z,73.40
2023-03-11T21:46:30.617Z,73.40
2023-03-11T21:51:34.240Z,73.40
2023-03-11T21:56:39.325Z,72.90
2023-03-11T22:01:42.849Z,72.50
2023-03-11T22:06:46.325Z,72.50
2023-03-11T22:11:51.292Z,72.40
2023-03-11T22:16:54.817Z,72.30
2023-03-11T22:21:58.320Z,72.40
2023-03-11T22:27:03.463Z,72.40
2023-03-11T22:32:07.173Z,72.50
2023-03-11T22:37:10.763Z,72.50
2023-03-11T22:42:15.547Z,72.30
2023-03-11T22:47:19.189Z,72.30
2023-03-11T22:52:22.670Z,72.40
2023-03-11T22:57:27.690Z,72.50
2023-03-11T23:02:31.057Z,72.50
2023-03-11T23:07:34.548Z,72.60
2023-03-11T23:12:39.783Z,72.60
2023-03-11T23:17:43.291Z,72.70
2023-03-11T23:22:46.751Z,72.70
2023-03-11T23:27:51.812Z,72.90
2023-03-11T23:32:55.217Z,73.00
2023-03-11T23:37:59.248Z,73.00
2023-03-11T23:43:04.006Z,72.80
2023-03-11T23:48:07.846Z,72.90
2023-03-11T23:53:11.427Z,73.10
2023-03-11T23:58:16.137Z,73.40
